sensor_id;sensor_type;location;lat;lon;timestamp;temperature;humidity
530;DHT22;251;48.704;9.210;2022-08-01T00:01:45;18.10;29.60
530;DHT22;251;48.704;9.210;2022-08-01T00:04:12;18.30;30.00
530;DHT22;251;48.704;9.210;2022-08-01T00:06:39;18.00;29.80
530;DHT22;251;48.704;9.210;2022-08-01T00:09:05;18.10;30.30
530;DHT22;251;48.704;9.210;2022-08-01T00:11:32;18.00;29.90
530;DHT22;251;48.704;9.210;2022-08-01T00:13:59;18.10;29.70
530;DHT22;251;48.704;9.210;2022-08-01T00:16:26;18.00;30.50
530;DHT22;251;48.704;9.210;2022-08-01T00:18:54;18.10;30.40
530;DHT22;251;48.704;9.210;2022-08-01T00:21:21;18.20;31.40
530;DHT22;251;48.704;9.210;2022-08-01T00:23:48;17.90;30.80
530;DHT22;251;48.704;9.210;2022-08-01T00:26:15;17.80;30.50
530;DHT22;251;48.704;9.210;2022-08-01T00:28:41;18.00;31.20
530;DHT22;251;48.704;9.210;2022-08-01T00:31:08;17.80;31.70
530;DHT22;251;48.704;9.210;2022-08-01T00:33:35;17.80;31.70
530;DHT22;251;48.704;9.210;2022-08-01T00:36:03;17.90;31.50
530;DHT22;251;48.704;9.210;2022-08-01T00:38:30;17.80;31.70
530;DHT22;251;48.704;9.210;2022-08-01T00:40:57;17.80;31.60
530;DHT22;251;48.704;9.210;2022-08-01T00:43:24;17.70;31.50
530;DHT22;251;48.704;9.210;2022-08-01T00:45:50;17.80;32.40
530;DHT22;251;48.704;9.210;2022-08-01T00:48:17;17.70;31.70
530;DHT22;251;48.704;9.210;2022-08-01T00:50:44;17.40;32.20
530;DHT22;251;48.704;9.210;2022-08-01T00:53:13;17.30;32.00
530;DHT22;251;48.704;9.210;2022-08-01T00:55:40;17.60;32.20
530;DHT22;251;48.704;9.210;2022-08-01T00:58:07;17.50;32.70
530;DHT22;251;48.704;9.210;2022-08-01T01:00:35;17.40;33.70
530;DHT22;251;48.704;9.210;2022-08-01T01:03:02;17.30;33.00
530;DHT22;251;48.704;9.210;2022-08-01T01:05:29;17.30;33.00
530;DHT22;251;48.704;9.210;2022-08-01T01:08:02;17.40;33.40
530;DHT22;251;48.704;9.210;2022-08-01T01:10:35;17.30;33.80
530;DHT22;251;48.704;9.210;2022-08-01T01:13:06;17.30;33.80
530;DHT22;251;48.704;9.210;2022-08-01T01:15:39;17.50;33.70
530;DHT22;251;48.704;9.210;2022-08-01T01:18:11;17.20;33.70
530;DHT22;251;48.704;9.210;2022-08-01T01:20:42;17.20;33.20
530;DHT22;251;48.704;9.210;2022-08-01T01:23:20;16.90;33.90
530;DHT22;251;48.704;9.210;2022-08-01T01:26:04;17.20;34.80
530;DHT22;251;48.704;9.210;2022-08-01T01:28:57;17.10;35.90
530;DHT22;251;48.704;9.210;2022-08-01T01:31:26;17.20;35.10
530;DHT22;251;48.704;9.210;2022-08-01T01:33:55;16.90;35.00
530;DHT22;251;48.704;9.210;2022-08-01T01:36:26;17.10;35.70
530;DHT22;251;48.704;9.210;2022-08-01T01:38:54;17.10;35.40
530;DHT22;251;48.704;9.210;2022-08-01T01:41:21;17.20;35.30
530;DHT22;251;48.704;9.210;2022-08-01T01:43:49;16.90;34.60
530;DHT22;251;48.704;9.210;2022-08-01T01:46:22;17.20;35.20
530;DHT22;251;48.704;9.210;2022-08-01T01:48:50;17.10;34.80
530;DHT22;251;48.704;9.210;2022-08-01T01:51:21;16.80;33.90
530;DHT22;251;48.704;9.210;2022-08-01T01:53:49;17.00;34.60
530;DHT22;251;48.704;9.210;2022-08-01T01:56:19;16.90;35.10
530;DHT22;251;48.704;9.210;2022-08-01T01:58:49;16.70;35.70
530;DHT22;251;48.704;9.210;2022-08-01T02:01:18;16.50;35.10
530;DHT22;251;48.704;9.210;2022-08-01T02:03:47;16.80;36.40
530;DHT22;251;48.704;9.210;2022-08-01T02:06:16;16.70;37.10
530;DHT22;251;48.704;9.210;2022-08-01T02:08:43;16.60;36.70
530;DHT22;251;48.704;9.210;2022-08-01T02:11:13;16.80;37.10
530;DHT22;251;48.704;9.210;2022-08-01T02:13:50;16.60;36.40
530;DHT22;251;48.704;9.210;2022-08-01T02:16:21;16.60;36.80
530;DHT22;251;48.704;9.210;2022-08-01T02:18:49;16.40;36.80
530;DHT22;251;48.704;9.210;2022-08-01T02:21:20;16.50;36.80
530;DHT22;251;48.704;9.210;2022-08-01T02:23:50;16.70;36.60
530;DHT22;251;48.704;9.210;2022-08-01T02:26:18;16.70;37.00
530;DHT22;251;48.704;9.210;2022-08-01T02:28:49;16.50;36.70
530;DHT22;251;48.704;9.210;2022-08-01T02:31:18;16.70;37.60
530;DHT22;251;48.704;9.210;2022-08-01T02:33:55;16.50;37.40
530;DHT22;251;48.704;9.210;2022-08-01T02:36:25;16.60;39.10
530;DHT22;251;48.704;9.210;2022-08-01T02:38:54;16.40;37.00
530;DHT22;251;48.704;9.210;2022-08-01T02:41:24;16.40;37.20
530;DHT22;251;48.704;9.210;2022-08-01T02:43:56;16.50;38.40
530;DHT22;251;48.704;9.210;2022-08-01T02:46:28;16.30;38.00
530;DHT22;251;48.704;9.210;2022-08-01T02:49:00;16.40;37.90
530;DHT22;251;48.704;9.210;2022-08-01T02:51:28;16.10;38.60
530;DHT22;251;48.704;9.210;2022-08-01T02:53:57;16.40;38.20
530;DHT22;251;48.704;9.210;2022-08-01T02:56:25;16.40;38.30
530;DHT22;251;48.704;9.210;2022-08-01T02:59:02;16.30;38.90
530;DHT22;251;48.704;9.210;2022-08-01T03:01:32;16.40;39.20
530;DHT22;251;48.704;9.210;2022-08-01T03:04:01;16.30;38.70
530;DHT22;251;48.704;9.210;2022-08-01T03:06:28;16.40;39.70
530;DHT22;251;48.704;9.210;2022-08-01T03:08:57;16.20;38.90
530;DHT22;251;48.704;9.210;2022-08-01T03:11:25;16.50;39.10
530;DHT22;251;48.704;9.210;2022-08-01T03:13:55;16.40;39.40
530;DHT22;251;48.704;9.210;2022-08-01T03:16:24;16.30;39.70
530;DHT22;251;48.704;9.210;2022-08-01T03:18:53;16.40;39.50
530;DHT22;251;48.704;9.210;2022-08-01T03:21:23;16.40;39.60
530;DHT22;251;48.704;9.210;2022-08-01T03:23:51;16.40;39.80
530;DHT22;251;48.704;9.210;2022-08-01T03:26:26;16.20;39.30
530;DHT22;251;48.704;9.210;2022-08-01T03:28:55;16.30;39.50
530;DHT22;251;48.704;9.210;2022-08-01T03:31:24;16.20;40.40
530;DHT22;251;48.704;9.210;2022-08-01T03:33:51;16.10;40.00
530;DHT22;251;48.704;9.210;2022-08-01T03:36:23;16.40;40.50
530;DHT22;251;48.704;9.210;2022-08-01T03:38:52;16.00;40.70
530;DHT22;251;48.704;9.210;2022-08-01T03:41:24;16.00;40.90
530;DHT22;251;48.704;9.210;2022-08-01T03:43:56;15.90;40.60
530;DHT22;251;48.704;9.210;2022-08-01T03:46:28;16.10;41.00
530;DHT22;251;48.704;9.210;2022-08-01T03:48:58;16.10;41.30
530;DHT22;251;48.704;9.210;2022-08-01T03:51:29;16.00;41.40
530;DHT22;251;48.704;9.210;2022-08-01T03:53:58;15.90;41.90
530;DHT22;251;48.704;9.210;2022-08-01T03:56:26;16.00;42.00
530;DHT22;251;48.704;9.210;2022-08-01T03:58:56;16.00;41.50
530;DHT22;251;48.704;9.210;2022-08-01T04:01:23;16.00;42.00
530;DHT22;251;48.704;9.210;2022-08-01T04:03:50;16.00;43.00
530;DHT22;251;48.704;9.210;2022-08-01T04:06:17;16.00;43.10
530;DHT22;251;48.704;9.210;2022-08-01T04:08:45;16.10;43.10
530;DHT22;251;48.704;9.210;2022-08-01T04:11:21;16.30;43.20
530;DHT22;251;48.704;9.210;2022-08-01T04:13:49;16.00;42.90
530;DHT22;251;48.704;9.210;2022-08-01T04:16:17;16.00;43.20
530;DHT22;251;48.704;9.210;2022-08-01T04:18:43;16.30;43.80
530;DHT22;251;48.704;9.210;2022-08-01T04:21:10;16.10;43.20
530;DHT22;251;48.704;9.210;2022-08-01T04:23:38;16.10;43.60
530;DHT22;251;48.704;9.210;2022-08-01T04:26:08;15.90;44.20
530;DHT22;251;48.704;9.210;2022-08-01T04:28:37;16.10;44.90
530;DHT22;251;48.704;9.210;2022-08-01T04:31:07;16.30;44.80
530;DHT22;251;48.704;9.210;2022-08-01T04:33:38;16.20;45.00
530;DHT22;251;48.704;9.210;2022-08-01T04:36:08;16.20;44.90
530;DHT22;251;48.704;9.210;2022-08-01T04:38:37;16.30;45.00
530;DHT22;251;48.704;9.210;2022-08-01T04:41:07;16.20;45.00
530;DHT22;251;48.704;9.210;2022-08-01T04:43:36;16.30;46.40
530;DHT22;251;48.704;9.210;2022-08-01T04:46:03;16.30;46.00
530;DHT22;251;48.704;9.210;2022-08-01T04:48:32;16.20;46.30
530;DHT22;251;48.704;9.210;2022-08-01T04:50:59;16.20;47.70
530;DHT22;251;48.704;9.210;2022-08-01T04:53:26;16.30;47.90
530;DHT22;251;48.704;9.210;2022-08-01T04:55:53;16.30;46.80
530;DHT22;251;48.704;9.210;2022-08-01T04:58:22;16.40;47.90
530;DHT22;251;48.704;9.210;2022-08-01T05:00:49;16.50;47.50
530;DHT22;251;48.704;9.210;2022-08-01T05:03:16;16.20;47.00
530;DHT22;251;48.704;9.210;2022-08-01T05:05:43;16.50;48.00
530;DHT22;251;48.704;9.210;2022-08-01T05:08:09;16.50;49.30
530;DHT22;251;48.704;9.210;2022-08-01T05:10:36;16.40;49.30
530;DHT22;251;48.704;9.210;2022-08-01T05:13:03;16.90;49.80
530;DHT22;251;48.704;9.210;2022-08-01T05:15:34;16.80;49.60
530;DHT22;251;48.704;9.210;2022-08-01T05:18:02;16.70;50.80
530;DHT22;251;48.704;9.210;2022-08-01T05:20:29;16.90;50.40
530;DHT22;251;48.704;9.210;2022-08-01T05:22:55;17.00;51.40
530;DHT22;251;48.704;9.210;2022-08-01T05:25:23;16.90;51.70
530;DHT22;251;48.704;9.210;2022-08-01T05:27:50;17.00;51.70
530;DHT22;251;48.704;9.210;2022-08-01T05:30:16;17.00;52.90
530;DHT22;251;48.704;9.210;2022-08-01T05:32:45;17.00;52.90
530;DHT22;251;48.704;9.210;2022-08-01T05:35:11;17.10;54.00
530;DHT22;251;48.704;9.210;2022-08-01T05:37:38;17.30;53.30
530;DHT22;251;48.704;9.210;2022-08-01T05:40:06;17.70;53.10
530;DHT22;251;48.704;9.210;2022-08-01T05:42:33;17.40;52.10
530;DHT22;251;48.704;9.210;2022-08-01T05:44:59;17.80;52.00
530;DHT22;251;48.704;9.210;2022-08-01T05:47:26;17.70;52.60
530;DHT22;251;48.704;9.210;2022-08-01T05:49:54;17.90;53.40
530;DHT22;251;48.704;9.210;2022-08-01T05:52:21;17.80;52.60
530;DHT22;251;48.704;9.210;2022-08-01T05:54:48;17.90;50.80
530;DHT22;251;48.704;9.210;2022-08-01T05:57:14;18.20;49.10
530;DHT22;251;48.704;9.210;2022-08-01T05:59:41;18.10;50.40
530;DHT22;251;48.704;9.210;2022-08-01T06:02:08;18.40;50.20
530;DHT22;251;48.704;9.210;2022-08-01T06:04:35;18.70;47.90
530;DHT22;251;48.704;9.210;2022-08-01T06:07:03;18.70;46.00
530;DHT22;251;48.704;9.210;2022-08-01T06:09:30;18.60;44.00
530;DHT22;251;48.704;9.210;2022-08-01T06:11:57;19.00;41.10
530;DHT22;251;48.704;9.210;2022-08-01T06:14:24;19.30;42.80
530;DHT22;251;48.704;9.210;2022-08-01T06:16:51;19.50;40.70
530;DHT22;251;48.704;9.210;2022-08-01T06:19:17;19.50;38.50
530;DHT22;251;48.704;9.210;2022-08-01T06:21:44;19.60;37.00
530;DHT22;251;48.704;9.210;2022-08-01T06:24:12;19.60;34.40
530;DHT22;251;48.704;9.210;2022-08-01T06:26:39;20.00;31.50
530;DHT22;251;48.704;9.210;2022-08-01T06:29:06;20.20;30.70
530;DHT22;251;48.704;9.210;2022-08-01T06:31:33;20.30;29.70
530;DHT22;251;48.704;9.210;2022-08-01T06:34:00;20.50;28.40
530;DHT22;251;48.704;9.210;2022-08-01T06:36:27;20.70;29.40
530;DHT22;251;48.704;9.210;2022-08-01T06:38:53;20.80;27.90
530;DHT22;251;48.704;9.210;2022-08-01T06:41:21;21.00;27.50
530;DHT22;251;48.704;9.210;2022-08-01T06:43:49;21.20;27.30
530;DHT22;251;48.704;9.210;2022-08-01T06:46:15;21.30;27.10
530;DHT22;251;48.704;9.210;2022-08-01T06:48:42;21.40;26.00
530;DHT22;251;48.704;9.210;2022-08-01T06:51:09;21.50;26.00
530;DHT22;251;48.704;9.210;2022-08-01T06:53:39;21.60;24.60
530;DHT22;251;48.704;9.210;2022-08-01T06:56:07;21.70;24.10
530;DHT22;251;48.704;9.210;2022-08-01T06:58:36;21.70;24.10
530;DHT22;251;48.704;9.210;2022-08-01T07:01:03;21.70;24.30
530;DHT22;251;48.704;9.210;2022-08-01T07:03:31;21.80;23.90
530;DHT22;251;48.704;9.210;2022-08-01T07:05:58;21.90;24.00
530;DHT22;251;48.704;9.210;2022-08-01T07:08:25;21.90;23.50
530;DHT22;251;48.704;9.210;2022-08-01T07:10:52;21.90;23.40
530;DHT22;251;48.704;9.210;2022-08-01T07:13:18;22.00;22.00
530;DHT22;251;48.704;9.210;2022-08-01T07:15:52;22.00;22.00
530;DHT22;251;48.704;9.210;2022-08-01T07:18:19;22.10;21.70
530;DHT22;251;48.704;9.210;2022-08-01T07:20:46;22.10;22.70
530;DHT22;251;48.704;9.210;2022-08-01T07:23:13;22.20;22.00
530;DHT22;251;48.704;9.210;2022-08-01T07:25:39;22.20;21.40
530;DHT22;251;48.704;9.210;2022-08-01T07:28:06;22.20;21.70
530;DHT22;251;48.704;9.210;2022-08-01T07:30:33;22.20;21.40
530;DHT22;251;48.704;9.210;2022-08-01T07:33:03;22.30;21.00
530;DHT22;251;48.704;9.210;2022-08-01T07:35:30;22.40;21.30
530;DHT22;251;48.704;9.210;2022-08-01T07:37:57;22.40;21.50
530;DHT22;251;48.704;9.210;2022-08-01T07:40:24;22.50;20.20
530;DHT22;251;48.704;9.210;2022-08-01T07:42:51;22.60;19.40
530;DHT22;251;48.704;9.210;2022-08-01T07:45:18;22.60;19.50
530;DHT22;251;48.704;9.210;2022-08-01T07:47:46;22.60;19.00
530;DHT22;251;48.704;9.210;2022-08-01T07:50:16;22.60;19.10
530;DHT22;251;48.704;9.210;2022-08-01T07:52:43;22.60;19.60
530;DHT22;251;48.704;9.210;2022-08-01T07:55:11;22.60;19.70
530;DHT22;251;48.704;9.210;2022-08-01T07:57:38;22.70;19.00
530;DHT22;251;48.704;9.210;2022-08-01T08:00:06;22.80;18.10
530;DHT22;251;48.704;9.210;2022-08-01T08:02:34;22.80;18.90
530;DHT22;251;48.704;9.210;2022-08-01T08:05:01;22.90;17.40
530;DHT22;251;48.704;9.210;2022-08-01T08:07:29;22.90;17.90
530;DHT22;251;48.704;9.210;2022-08-01T08:09:55;23.00;19.10
530;DHT22;251;48.704;9.210;2022-08-01T08:12:22;23.00;17.80
530;DHT22;251;48.704;9.210;2022-08-01T08:14:49;23.10;17.00
530;DHT22;251;48.704;9.210;2022-08-01T08:17:16;23.20;16.90
530;DHT22;251;48.704;9.210;2022-08-01T08:19:43;23.20;16.70
530;DHT22;251;48.704;9.210;2022-08-01T08:22:10;23.30;16.90
530;DHT22;251;48.704;9.210;2022-08-01T08:24:38;23.40;16.90
530;DHT22;251;48.704;9.210;2022-08-01T08:27:05;23.50;15.80
530;DHT22;251;48.704;9.210;2022-08-01T08:29:33;23.50;16.20
530;DHT22;251;48.704;9.210;2022-08-01T08:32:01;23.50;16.10
530;DHT22;251;48.704;9.210;2022-08-01T08:34:28;23.50;16.10
530;DHT22;251;48.704;9.210;2022-08-01T08:36:56;23.60;17.10
530;DHT22;251;48.704;9.210;2022-08-01T08:39:23;23.70;15.10
530;DHT22;251;48.704;9.210;2022-08-01T08:41:52;23.80;16.00
530;DHT22;251;48.704;9.210;2022-08-01T08:44:19;23.90;15.30
530;DHT22;251;48.704;9.210;2022-08-01T08:46:49;24.00;16.00
530;DHT22;251;48.704;9.210;2022-08-01T08:49:18;24.00;16.10
530;DHT22;251;48.704;9.210;2022-08-01T08:51:47;24.00;15.60
530;DHT22;251;48.704;9.210;2022-08-01T08:54:15;24.00;16.60
530;DHT22;251;48.704;9.210;2022-08-01T08:56:43;24.00;15.70
530;DHT22;251;48.704;9.210;2022-08-01T08:59:13;24.10;16.10
530;DHT22;251;48.704;9.210;2022-08-01T09:01:41;24.00;15.20
530;DHT22;251;48.704;9.210;2022-08-01T09:04:08;24.10;15.10
530;DHT22;251;48.704;9.210;2022-08-01T09:06:34;24.20;14.80
530;DHT22;251;48.704;9.210;2022-08-01T09:09:01;24.30;15.10
530;DHT22;251;48.704;9.210;2022-08-01T09:11:29;24.40;14.20
530;DHT22;251;48.704;9.210;2022-08-01T09:14:07;24.50;13.50
530;DHT22;251;48.704;9.210;2022-08-01T09:16:37;24.60;14.70
530;DHT22;251;48.704;9.210;2022-08-01T09:19:08;24.70;12.50
530;DHT22;251;48.704;9.210;2022-08-01T09:21:36;24.80;13.40
530;DHT22;251;48.704;9.210;2022-08-01T09:24:04;24.80;12.40
530;DHT22;251;48.704;9.210;2022-08-01T09:26:39;24.90;12.70
530;DHT22;251;48.704;9.210;2022-08-01T09:29:07;24.90;12.80
530;DHT22;251;48.704;9.210;2022-08-01T09:31:42;24.90;13.50
530;DHT22;251;48.704;9.210;2022-08-01T09:34:09;24.90;13.80
530;DHT22;251;48.704;9.210;2022-08-01T09:36:48;24.80;13.70
530;DHT22;251;48.704;9.210;2022-08-01T09:39:19;24.80;13.20
530;DHT22;251;48.704;9.210;2022-08-01T09:41:47;24.70;12.90
530;DHT22;251;48.704;9.210;2022-08-01T09:44:14;24.80;12.70
530;DHT22;251;48.704;9.210;2022-08-01T09:46:51;24.80;13.80
530;DHT22;251;48.704;9.210;2022-08-01T09:49:36;25.00;13.60
530;DHT22;251;48.704;9.210;2022-08-01T09:52:12;25.00;12.20
530;DHT22;251;48.704;9.210;2022-08-01T09:54:40;25.10;13.60
530;DHT22;251;48.704;9.210;2022-08-01T09:57:08;25.20;13.00
530;DHT22;251;48.704;9.210;2022-08-01T09:59:36;25.30;12.20
530;DHT22;251;48.704;9.210;2022-08-01T10:02:07;25.30;12.60
530;DHT22;251;48.704;9.210;2022-08-01T10:04:36;25.40;11.90
530;DHT22;251;48.704;9.210;2022-08-01T10:07:07;25.50;10.90
530;DHT22;251;48.704;9.210;2022-08-01T10:09:35;25.50;12.70
530;DHT22;251;48.704;9.210;2022-08-01T10:12:04;25.60;11.00
530;DHT22;251;48.704;9.210;2022-08-01T10:14:31;25.70;12.40
530;DHT22;251;48.704;9.210;2022-08-01T10:16:59;25.70;12.10
530;DHT22;251;48.704;9.210;2022-08-01T10:19:29;25.70;12.80
530;DHT22;251;48.704;9.210;2022-08-01T10:21:58;25.70;13.20
530;DHT22;251;48.704;9.210;2022-08-01T10:24:27;25.70;12.50
530;DHT22;251;48.704;9.210;2022-08-01T10:26:57;25.70;11.90
530;DHT22;251;48.704;9.210;2022-08-01T10:29:31;25.70;13.30
530;DHT22;251;48.704;9.210;2022-08-01T10:31:59;25.70;13.40
530;DHT22;251;48.704;9.210;2022-08-01T10:34:29;25.60;14.20
530;DHT22;251;48.704;9.210;2022-08-01T10:36:56;25.50;12.30
530;DHT22;251;48.704;9.210;2022-08-01T10:39:23;25.60;12.70
530;DHT22;251;48.704;9.210;2022-08-01T10:41:51;25.60;11.60
530;DHT22;251;48.704;9.210;2022-08-01T10:44:18;25.70;13.50
530;DHT22;251;48.704;9.210;2022-08-01T10:46:49;25.90;13.80
530;DHT22;251;48.704;9.210;2022-08-01T10:49:17;25.90;12.40
530;DHT22;251;48.704;9.210;2022-08-01T10:51:48;26.00;12.40
530;DHT22;251;48.704;9.210;2022-08-01T10:54:15;26.00;11.20
530;DHT22;251;48.704;9.210;2022-08-01T10:56:44;26.00;12.40
530;DHT22;251;48.704;9.210;2022-08-01T10:59:14;26.10;11.30
530;DHT22;251;48.704;9.210;2022-08-01T11:01:41;26.20;11.10
530;DHT22;251;48.704;9.210;2022-08-01T11:04:11;26.20;11.70
530;DHT22;251;48.704;9.210;2022-08-01T11:06:46;26.30;11.30
530;DHT22;251;48.704;9.210;2022-08-01T11:09:23;26.40;10.90
530;DHT22;251;48.704;9.210;2022-08-01T11:11:59;26.60;11.90
530;DHT22;251;48.704;9.210;2022-08-01T11:14:27;26.70;11.30
530;DHT22;251;48.704;9.210;2022-08-01T11:16:55;26.70;10.10
530;DHT22;251;48.704;9.210;2022-08-01T11:19:22;26.60;8.40
530;DHT22;251;48.704;9.210;2022-08-01T11:21:58;26.50;10.00
530;DHT22;251;48.704;9.210;2022-08-01T11:24:56;26.40;10.00
530;DHT22;251;48.704;9.210;2022-08-01T11:27:25;26.40;11.10
530;DHT22;251;48.704;9.210;2022-08-01T11:30:23;26.30;10.10
530;DHT22;251;48.704;9.210;2022-08-01T11:32:53;26.30;9.40
530;DHT22;251;48.704;9.210;2022-08-01T11:35:21;26.20;9.40
530;DHT22;251;48.704;9.210;2022-08-01T11:37:51;26.10;12.10
530;DHT22;251;48.704;9.210;2022-08-01T11:40:22;25.90;10.90
530;DHT22;251;48.704;9.210;2022-08-01T11:42:50;25.90;10.30
530;DHT22;251;48.704;9.210;2022-08-01T11:45:17;25.80;11.40
530;DHT22;251;48.704;9.210;2022-08-01T11:47:46;25.80;11.40
530;DHT22;251;48.704;9.210;2022-08-01T11:50:32;25.80;12.70
530;DHT22;251;48.704;9.210;2022-08-01T11:52:59;25.70;11.90
530;DHT22;251;48.704;9.210;2022-08-01T11:55:28;25.60;12.10
530;DHT22;251;48.704;9.210;2022-08-01T11:58:03;25.60;11.80
530;DHT22;251;48.704;9.210;2022-08-01T12:00:31;25.50;13.20
530;DHT22;251;48.704;9.210;2022-08-01T12:02:59;25.50;13.00
530;DHT22;251;48.704;9.210;2022-08-01T12:05:27;25.50;13.20
530;DHT22;251;48.704;9.210;2022-08-01T12:07:55;25.40;12.50
530;DHT22;251;48.704;9.210;2022-08-01T12:10:24;25.50;13.30
530;DHT22;251;48.704;9.210;2022-08-01T12:12:53;25.50;13.30
530;DHT22;251;48.704;9.210;2022-08-01T12:15:21;25.50;13.40
530;DHT22;251;48.704;9.210;2022-08-01T12:17:53;25.50;13.10
530;DHT22;251;48.704;9.210;2022-08-01T12:20:22;25.50;12.00
530;DHT22;251;48.704;9.210;2022-08-01T12:22:53;25.60;11.40
530;DHT22;251;48.704;9.210;2022-08-01T12:25:20;25.60;11.10
530;DHT22;251;48.704;9.210;2022-08-01T12:27:48;25.70;11.30
530;DHT22;251;48.704;9.210;2022-08-01T12:30:18;25.70;11.10
530;DHT22;251;48.704;9.210;2022-08-01T12:32:48;25.80;10.80
530;DHT22;251;48.704;9.210;2022-08-01T12:35:17;25.90;11.30
530;DHT22;251;48.704;9.210;2022-08-01T12:37:47;25.90;12.00
530;DHT22;251;48.704;9.210;2022-08-01T12:40:16;25.90;11.70
530;DHT22;251;48.704;9.210;2022-08-01T12:42:45;25.90;10.90
530;DHT22;251;48.704;9.210;2022-08-01T12:45:16;25.90;11.80
530;DHT22;251;48.704;9.210;2022-08-01T12:47:44;25.90;12.90
530;DHT22;251;48.704;9.210;2022-08-01T12:50:14;25.90;12.30
530;DHT22;251;48.704;9.210;2022-08-01T12:52:41;26.00;11.20
530;DHT22;251;48.704;9.210;2022-08-01T12:55:11;26.10;10.90
530;DHT22;251;48.704;9.210;2022-08-01T12:57:40;26.20;9.70
530;DHT22;251;48.704;9.210;2022-08-01T13:00:20;26.10;12.10
530;DHT22;251;48.704;9.210;2022-08-01T13:02:48;26.20;11.10
530;DHT22;251;48.704;9.210;2022-08-01T13:05:15;26.20;10.70
530;DHT22;251;48.704;9.210;2022-08-01T13:07:45;26.30;10.40
530;DHT22;251;48.704;9.210;2022-08-01T13:10:14;26.30;11.30
530;DHT22;251;48.704;9.210;2022-08-01T13:12:52;26.50;9.40
530;DHT22;251;48.704;9.210;2022-08-01T13:15:26;26.60;10.70
530;DHT22;251;48.704;9.210;2022-08-01T13:17:54;26.70;8.80
530;DHT22;251;48.704;9.210;2022-08-01T13:20:26;26.80;9.00
530;DHT22;251;48.704;9.210;2022-08-01T13:22:52;26.90;9.80
530;DHT22;251;48.704;9.210;2022-08-01T13:25:19;27.00;7.90
530;DHT22;251;48.704;9.210;2022-08-01T13:27:47;27.20;8.60
530;DHT22;251;48.704;9.210;2022-08-01T13:30:15;27.30;7.40
530;DHT22;251;48.704;9.210;2022-08-01T13:32:44;27.30;7.30
530;DHT22;251;48.704;9.210;2022-08-01T13:35:12;27.30;7.20
530;DHT22;251;48.704;9.210;2022-08-01T13:37:40;27.20;8.40
530;DHT22;251;48.704;9.210;2022-08-01T13:40:09;27.10;7.80
530;DHT22;251;48.704;9.210;2022-08-01T13:42:37;27.00;8.60
530;DHT22;251;48.704;9.210;2022-08-01T13:45:05;26.90;8.00
530;DHT22;251;48.704;9.210;2022-08-01T13:47:36;26.80;8.20
530;DHT22;251;48.704;9.210;2022-08-01T13:50:06;26.70;9.20
530;DHT22;251;48.704;9.210;2022-08-01T13:52:33;26.60;8.50
530;DHT22;251;48.704;9.210;2022-08-01T13:55:00;26.60;8.80
530;DHT22;251;48.704;9.210;2022-08-01T13:57:28;26.60;9.60
530;DHT22;251;48.704;9.210;2022-08-01T13:59:55;26.70;8.40
530;DHT22;251;48.704;9.210;2022-08-01T14:02:25;26.70;11.00
530;DHT22;251;48.704;9.210;2022-08-01T14:04:52;26.90;9.50
530;DHT22;251;48.704;9.210;2022-08-01T14:07:21;26.90;8.50
530;DHT22;251;48.704;9.210;2022-08-01T14:09:47;26.90;8.60
530;DHT22;251;48.704;9.210;2022-08-01T14:12:14;26.90;8.50
530;DHT22;251;48.704;9.210;2022-08-01T14:14:41;27.00;9.50
530;DHT22;251;48.704;9.210;2022-08-01T14:17:07;26.90;8.60
530;DHT22;251;48.704;9.210;2022-08-01T14:19:35;27.00;8.50
530;DHT22;251;48.704;9.210;2022-08-01T14:22:01;26.90;8.30
530;DHT22;251;48.704;9.210;2022-08-01T14:24:29;26.90;8.40
530;DHT22;251;48.704;9.210;2022-08-01T14:26:56;26.90;9.60
530;DHT22;251;48.704;9.210;2022-08-01T14:29:24;26.90;8.40
530;DHT22;251;48.704;9.210;2022-08-01T14:31:51;26.80;8.40
530;DHT22;251;48.704;9.210;2022-08-01T14:34:17;26.80;9.00
530;DHT22;251;48.704;9.210;2022-08-01T14:36:44;26.90;8.50
530;DHT22;251;48.704;9.210;2022-08-01T14:39:11;26.90;8.40
530;DHT22;251;48.704;9.210;2022-08-01T14:41:40;26.80;9.50
530;DHT22;251;48.704;9.210;2022-08-01T14:44:07;26.80;9.90
530;DHT22;251;48.704;9.210;2022-08-01T14:46:34;26.90;8.40
530;DHT22;251;48.704;9.210;2022-08-01T14:49:01;26.80;8.40
530;DHT22;251;48.704;9.210;2022-08-01T14:51:28;26.80;8.50
530;DHT22;251;48.704;9.210;2022-08-01T14:53:58;26.80;8.40
530;DHT22;251;48.704;9.210;2022-08-01T14:56:25;26.70;8.40
530;DHT22;251;48.704;9.210;2022-08-01T14:58:53;26.70;9.10
530;DHT22;251;48.704;9.210;2022-08-01T15:01:20;26.70;9.50
530;DHT22;251;48.704;9.210;2022-08-01T15:03:47;26.70;9.40
530;DHT22;251;48.704;9.210;2022-08-01T15:06:15;26.70;9.70
530;DHT22;251;48.704;9.210;2022-08-01T15:08:42;26.70;8.30
530;DHT22;251;48.704;9.210;2022-08-01T15:11:10;26.80;9.50
530;DHT22;251;48.704;9.210;2022-08-01T15:13:36;26.80;8.50
530;DHT22;251;48.704;9.210;2022-08-01T15:16:05;26.80;9.00
530;DHT22;251;48.704;9.210;2022-08-01T15:18:31;26.80;8.40
530;DHT22;251;48.704;9.210;2022-08-01T15:20:58;26.80;10.30
530;DHT22;251;48.704;9.210;2022-08-01T15:23:25;26.80;9.60
530;DHT22;251;48.704;9.210;2022-08-01T15:25:52;26.80;7.20
530;DHT22;251;48.704;9.210;2022-08-01T15:28:19;26.80;8.90
530;DHT22;251;48.704;9.210;2022-08-01T15:30:46;26.80;8.40
530;DHT22;251;48.704;9.210;2022-08-01T15:33:14;26.80;8.40
530;DHT22;251;48.704;9.210;2022-08-01T15:35:41;26.80;9.00
530;DHT22;251;48.704;9.210;2022-08-01T15:38:08;26.80;9.80
530;DHT22;251;48.704;9.210;2022-08-01T15:40:35;26.80;9.20
530;DHT22;251;48.704;9.210;2022-08-01T15:43:02;26.90;8.50
530;DHT22;251;48.704;9.210;2022-08-01T15:45:29;26.90;7.30
530;DHT22;251;48.704;9.210;2022-08-01T15:47:57;27.00;7.00
530;DHT22;251;48.704;9.210;2022-08-01T15:50:25;27.10;7.60
530;DHT22;251;48.704;9.210;2022-08-01T15:52:52;27.10;5.70
530;DHT22;251;48.704;9.210;2022-08-01T15:55:18;27.10;5.70
530;DHT22;251;48.704;9.210;2022-08-01T15:57:45;27.10;6.40
530;DHT22;251;48.704;9.210;2022-08-01T16:00:12;27.00;6.60
530;DHT22;251;48.704;9.210;2022-08-01T16:02:40;26.90;7.10
530;DHT22;251;48.704;9.210;2022-08-01T16:05:07;26.90;6.50
530;DHT22;251;48.704;9.210;2022-08-01T16:07:36;26.90;6.70
530;DHT22;251;48.704;9.210;2022-08-01T16:10:04;26.90;7.30
530;DHT22;251;48.704;9.210;2022-08-01T16:12:31;26.80;7.40
530;DHT22;251;48.704;9.210;2022-08-01T16:14:58;26.80;7.20
530;DHT22;251;48.704;9.210;2022-08-01T16:17:25;26.80;6.30
530;DHT22;251;48.704;9.210;2022-08-01T16:19:51;26.70;6.10
530;DHT22;251;48.704;9.210;2022-08-01T16:22:18;26.70;6.90
530;DHT22;251;48.704;9.210;2022-08-01T16:24:46;26.70;6.60
530;DHT22;251;48.704;9.210;2022-08-01T16:27:13;26.70;7.70
530;DHT22;251;48.704;9.210;2022-08-01T16:29:40;26.60;6.00
530;DHT22;251;48.704;9.210;2022-08-01T16:32:07;26.60;6.00
530;DHT22;251;48.704;9.210;2022-08-01T16:34:33;26.60;7.20
530;DHT22;251;48.704;9.210;2022-08-01T16:37:00;26.60;7.00
530;DHT22;251;48.704;9.210;2022-08-01T16:39:27;26.50;6.60
530;DHT22;251;48.704;9.210;2022-08-01T16:41:56;26.50;6.60
530;DHT22;251;48.704;9.210;2022-08-01T16:44:23;26.50;8.20
530;DHT22;251;48.704;9.210;2022-08-01T16:46:49;26.50;7.80
530;DHT22;251;48.704;9.210;2022-08-01T16:49:16;26.50;8.20